createdAt,value
2022-10-02T11:49:59.085Z,2.00
2022-10-02T11:53:22.362Z,1.70
2022-10-02T11:56:40.880Z,1.73
2022-10-02T12:00:06.045Z,1.55
2022-10-02T12:03:29.280Z,1.60
2022-10-02T12:06:56.893Z,1.60
2022-10-02T12:10:17.256Z,1.77
2022-10-02T12:13:40.275Z,1.77
2022-10-02T12:16:48.598Z,2.00
2022-10-02T12:20:32.018Z,1.67
2022-10-02T12:23:59.513Z,2.00
2022-10-02T12:27:23.215Z,1.70
2022-10-02T12:30:33.742Z,2.15
2022-10-02T12:36:58.218Z,1.90
2022-10-02T12:40:15.452Z,1.67
2022-10-02T12:43:28.762Z,1.80
2022-10-02T12:46:52.134Z,1.73
2022-10-02T12:49:59.776Z,1.70
2022-10-02T12:53:17.061Z,1.85
2022-10-02T12:56:42.901Z,1.40
2022-10-02T13:00:16.312Z,1.38
2022-10-02T13:03:46.895Z,1.60
2022-10-02T13:10:05.183Z,1.50
2022-10-02T13:13:27.219Z,1.33
2022-10-02T13:17:09.774Z,1.40
2022-10-02T13:20:38.755Z,1.45
2022-10-02T13:23:54.665Z,1.40
2022-10-02T13:26:59.127Z,1.58
2022-10-02T13:30:19.194Z,1.27
2022-10-02T13:33:41.968Z,1.50
2022-10-02T13:36:46.106Z,1.50
2022-10-02T13:40:18.608Z,1.48
2022-10-02T13:43:29.569Z,1.50
2022-10-02T13:46:31.017Z,1.33
2022-10-02T13:49:47.701Z,1.42
2022-10-02T13:53:03.469Z,1.50
2022-10-02T13:56:17.438Z,1.70
2022-10-02T13:59:38.398Z,1.70
2022-10-02T14:03:07.218Z,1.77
2022-10-02T14:06:20.143Z,1.20
2022-10-02T14:09:30.030Z,1.20
2022-10-02T14:12:37.837Z,1.50
2022-10-02T14:16:21.395Z,1.38
2022-10-02T14:19:41.314Z,1.40
2022-10-02T14:22:51.932Z,1.63
2022-10-02T14:26:13.619Z,1.30
2022-10-02T14:29:27.239Z,1.27
2022-10-02T14:32:41.001Z,1.40
2022-10-02T14:36:07.110Z,1.38
2022-10-02T14:39:11.306Z,1.10
2022-10-02T14:42:25.791Z,1.40
2022-10-02T14:45:46.085Z,1.45
2022-10-02T14:49:12.448Z,1.20
2022-10-02T14:52:20.849Z,1.65
2022-10-02T14:55:44.235Z,1.50
2022-10-02T14:59:16.838Z,1.50
2022-10-02T15:02:18.256Z,1.30
2022-10-02T15:05:38.734Z,1.10
2022-10-02T15:11:56.509Z,1.23
2022-10-02T15:15:25.302Z,1.10
2022-10-02T15:18:58.038Z,1.10
2022-10-02T15:22:06.978Z,1.40
2022-10-02T15:25:31.805Z,1.20
2022-10-02T15:28:42.226Z,1.50
2022-10-02T15:35:22.263Z,1.00
2022-10-02T15:38:33.588Z,1.00
2022-10-02T15:41:48.988Z,1.33
2022-10-02T15:45:02.510Z,0.90
2022-10-02T15:48:08.075Z,1.10
2022-10-02T15:51:18.434Z,1.10
2022-10-02T15:54:31.561Z,0.90
2022-10-02T15:58:20.726Z,1.05
2022-10-02T16:01:44.804Z,1.17
2022-10-02T16:05:10.693Z,1.27
2022-10-02T16:08:33.407Z,0.95
2022-10-02T16:11:37.978Z,1.15
2022-10-02T16:14:50.908Z,0.93
2022-10-02T16:18:02.683Z,0.90
2022-10-02T16:21:06.285Z,1.30
2022-10-02T16:24:19.585Z,1.38
2022-10-02T16:27:47.981Z,0.90
2022-10-02T16:30:52.653Z,1.17
2022-10-02T16:34:01.359Z,1.30
2022-10-02T16:37:16.072Z,1.10
2022-10-02T16:40:29.444Z,1.00
2022-10-02T16:43:59.032Z,1.30
2022-10-02T16:47:15.373Z,1.00
2022-10-02T16:50:25.180Z,1.13
2022-10-02T16:53:31.336Z,1.00
2022-10-02T16:56:44.530Z,1.00
2022-10-02T16:59:53.642Z,0.98
2022-10-02T17:03:10.650Z,1.00
2022-10-02T17:06:28.490Z,1.33
2022-10-02T17:09:40.421Z,1.25
2022-10-02T17:13:33.156Z,0.90
2022-10-02T17:16:56.207Z,1.08
2022-10-02T17:20:00.819Z,0.98
2022-10-02T17:23:11.132Z,0.90
2022-10-02T17:26:20.635Z,0.80
2022-10-02T17:29:39.118Z,1.05
2022-10-02T17:32:46.889Z,1.00
2022-10-02T17:35:59.601Z,0.95
2022-10-02T17:39:21.324Z,1.10
2022-10-02T17:42:41.313Z,0.90
2022-10-02T17:45:50.499Z,0.90
2022-10-02T17:49:00.576Z,0.90
2022-10-02T17:52:35.442Z,0.85
2022-10-02T17:56:29.302Z,1.10
2022-10-02T17:59:49.359Z,1.02
2022-10-02T18:03:20.202Z,0.90
2022-10-02T18:06:33.770Z,0.77
2022-10-02T18:09:44.320Z,0.80
2022-10-02T18:13:08.387Z,0.90
2022-10-02T18:16:22.254Z,0.73
2022-10-02T18:19:31.529Z,1.00
2022-10-02T18:23:20.838Z,0.88
2022-10-02T18:27:13.292Z,0.75
2022-10-02T18:30:22.690Z,0.85
2022-10-02T18:33:33.251Z,0.90
2022-10-02T18:36:35.480Z,0.90
2022-10-02T18:39:36.935Z,0.80
2022-10-02T18:43:06.635Z,0.60
2022-10-02T18:46:10.975Z,0.70
2022-10-02T18:49:18.178Z,0.70
2022-10-02T18:52:35.069Z,0.63
2022-10-02T18:56:03.163Z,0.90
2022-10-02T18:59:34.259Z,1.08
2022-10-02T19:02:38.430Z,0.90
2022-10-02T19:06:09.642Z,0.85
2022-10-02T19:09:32.964Z,0.98
2022-10-02T19:12:34.607Z,0.80
2022-10-02T19:15:36.561Z,0.50
2022-10-02T19:18:38.790Z,0.90
2022-10-02T19:21:40.721Z,0.93
2022-10-02T19:24:44.227Z,0.75
2022-10-02T19:27:54.552Z,0.77
2022-10-02T19:34:05.620Z,0.88
2022-10-02T19:37:07.855Z,0.90
2022-10-02T19:40:22.884Z,0.80
2022-10-02T19:43:34.312Z,0.82
2022-10-02T19:46:41.121Z,0.70
2022-10-02T19:49:46.593Z,0.63
2022-10-02T19:52:53.966Z,0.70
2022-10-02T19:55:57.649Z,0.70
2022-10-02T19:59:08.782Z,0.70
2022-10-02T20:02:21.777Z,0.95
2022-10-02T20:05:33.680Z,0.80
2022-10-02T20:08:44.575Z,0.90
2022-10-02T20:11:50.797Z,0.90
2022-10-02T20:15:05.409Z,0.90
2022-10-02T20:18:08.153Z,1.30
2022-10-02T20:21:22.270Z,0.93
2022-10-02T20:24:29.847Z,0.80
2022-10-02T20:27:56.423Z,0.80
2022-10-02T20:31:26.917Z,0.77
2022-10-02T20:37:34.886Z,1.00
2022-10-02T20:40:42.065Z,0.65
2022-10-02T20:43:54.995Z,0.80
2022-10-02T20:47:11.956Z,0.70
2022-10-02T20:50:34.961Z,0.80
2022-10-02T20:53:57.481Z,0.60
2022-10-02T20:57:12.553Z,0.60
2022-10-02T21:00:25.008Z,0.50
2022-10-02T21:03:45.447Z,0.60
2022-10-02T21:10:37.654Z,0.95
2022-10-02T21:14:03.972Z,0.80
2022-10-02T21:17:43.149Z,0.70
2022-10-02T21:20:52.197Z,0.88
2022-10-02T21:24:17.354Z,0.90
2022-10-02T21:27:47.858Z,0.93
2022-10-02T21:34:12.514Z,0.80
2022-10-02T21:37:31.505Z,0.70
2022-10-02T21:40:51.321Z,1.00
2022-10-02T21:44:23.926Z,0.80
